createdAt,value
2019-04-20T00:00:41.100Z,18.37
2019-04-20T00:03:07.860Z,17.70
2019-04-20T00:05:39.125Z,16.57
2019-04-20T00:08:17.875Z,15.57
2019-04-20T00:10:52.476Z,16.27
2019-04-20T00:13:24.471Z,17.57
2019-04-20T00:15:45.067Z,16.90
2019-04-20T00:18:15.387Z,17.83
2019-04-20T00:20:57.559Z,17.83
2019-04-20T00:23:29.303Z,18.20
2019-04-20T00:26:15.772Z,19.03
2019-04-20T00:28:58.939Z,18.60
2019-04-20T00:31:23.585Z,18.80
2019-04-20T00:33:53.380Z,19.20
2019-04-20T00:36:13.895Z,18.47
2019-04-20T00:38:50.896Z,18.07
2019-04-20T00:41:18.573Z,17.63
2019-04-20T00:43:47.244Z,18.00
2019-04-20T00:46:26.366Z,18.00
2019-04-20T00:48:56.000Z,18.83
2019-04-20T00:51:35.301Z,18.57
2019-04-20T00:53:55.897Z,19.17
2019-04-20T00:56:24.868Z,20.87
2019-04-20T00:59:11.985Z,19.93
2019-04-20T01:01:47.483Z,20.30
2019-04-20T01:06:47.748Z,19.97
2019-04-20T01:09:14.008Z,19.30
2019-04-20T01:11:46.767Z,18.97
2019-04-20T01:14:17.459Z,17.10
2019-04-20T01:16:54.705Z,17.03
2019-04-20T01:19:20.362Z,17.43
2019-04-20T01:21:57.890Z,16.77
2019-04-20T01:24:30.909Z,16.10
2019-04-20T01:26:58.040Z,15.03
2019-04-20T01:29:34.761Z,15.07
2019-04-20T01:32:10.479Z,15.47
2019-04-20T01:34:42.335Z,15.20
2019-04-20T01:37:14.438Z,15.53
2019-04-20T01:39:37.082Z,17.13
2019-04-20T01:42:04.610Z,17.90
2019-04-20T01:44:41.184Z,17.20
2019-04-20T01:47:08.245Z,18.00
2019-04-20T01:49:39.021Z,18.93
2019-04-20T01:52:16.116Z,19.37
2019-04-20T01:54:59.420Z,20.57
2019-04-20T01:57:43.846Z,20.17
2019-04-20T02:00:10.617Z,18.80
2019-04-20T02:02:57.233Z,17.97
2019-04-20T02:05:28.952Z,18.53
2019-04-20T02:07:55.555Z,18.77
2019-04-20T02:10:33.253Z,19.47
2019-04-20T02:13:01.088Z,21.67
2019-04-20T02:15:35.209Z,20.90
2019-04-20T02:18:14.958Z,20.37
2019-04-20T02:20:48.607Z,19.10
2019-04-20T02:23:17.625Z,19.93
2019-04-20T02:25:35.670Z,19.07
2019-04-20T02:28:22.754Z,19.27
2019-04-20T02:31:15.631Z,20.00
2019-04-20T02:34:00.771Z,19.23
2019-04-20T02:36:40.686Z,19.60
2019-04-20T02:39:27.060Z,21.53
2019-04-20T02:41:44.560Z,21.40
2019-04-20T02:44:16.027Z,22.03
2019-04-20T02:49:26.198Z,21.40
2019-04-20T02:51:46.887Z,22.47
2019-04-20T02:57:05.497Z,20.13
2019-04-20T02:59:48.616Z,18.53
2019-04-20T03:01:43.398Z,19.87
2019-04-20T03:03:56.721Z,19.00
2019-04-20T03:06:38.228Z,19.07
2019-04-20T03:09:22.550Z,18.83
2019-04-20T03:11:59.322Z,18.43
2019-04-20T03:14:17.670Z,19.00
2019-04-20T03:16:50.365Z,18.77
2019-04-20T03:19:16.110Z,17.53
2019-04-20T03:21:59.814Z,18.00
2019-04-20T03:24:32.314Z,17.37
2019-04-20T03:26:56.911Z,17.37
2019-04-20T03:29:36.058Z,19.37
2019-04-20T03:32:46.919Z,18.23
2019-04-20T03:37:17.469Z,20.03
2019-04-20T03:39:40.551Z,20.70
2019-04-20T03:41:56.744Z,19.80
2019-04-20T03:44:29.097Z,21.80
2019-04-20T03:47:01.209Z,19.80
2019-04-20T03:49:54.962Z,20.50
2019-04-20T03:52:27.444Z,19.73
2019-04-20T03:55:15.074Z,20.47
2019-04-20T03:57:55.161Z,17.60
2019-04-20T04:00:26.436Z,19.37
2019-04-20T04:03:25.817Z,20.10
2019-04-20T04:05:48.031Z,21.07
2019-04-20T04:08:15.919Z,20.33
2019-04-20T04:10:54.869Z,20.13
2019-04-20T04:13:17.109Z,19.60
2019-04-20T04:15:54.687Z,19.70
2019-04-20T04:18:28.082Z,19.07
2019-04-20T04:21:01.485Z,18.73
2019-04-20T04:23:40.874Z,18.57
2019-04-20T04:26:12.657Z,18.07
2019-04-20T04:28:44.806Z,18.03
2019-04-20T04:31:16.215Z,18.73
2019-04-20T04:34:06.239Z,17.90
2019-04-20T04:36:17.677Z,18.50
2019-04-20T04:39:01.034Z,18.53
2019-04-20T04:41:27.080Z,18.13
2019-04-20T04:43:55.186Z,18.27
2019-04-20T04:46:10.322Z,18.60
2019-04-20T04:48:44.210Z,17.53
2019-04-20T04:51:19.761Z,17.97
2019-04-20T04:53:54.217Z,18.37
2019-04-20T04:56:18.046Z,17.40
2019-04-20T04:58:46.835Z,18.30
2019-04-20T05:01:22.399Z,18.87
2019-04-20T05:04:19.176Z,17.90
2019-04-20T05:06:33.190Z,18.93
2019-04-20T05:08:57.961Z,19.10
2019-04-20T05:11:23.813Z,18.73
2019-04-20T05:14:00.186Z,19.13
2019-04-20T05:16:46.047Z,19.27
2019-04-20T05:19:19.323Z,17.67
2019-04-20T05:21:58.654Z,18.63
2019-04-20T05:24:23.154Z,18.37
2019-04-20T05:27:06.048Z,17.50
2019-04-20T05:29:19.377Z,18.97
2019-04-20T05:31:51.782Z,18.20
2019-04-20T05:34:38.643Z,18.13
2019-04-20T05:37:18.020Z,18.10
2019-04-20T05:39:45.803Z,18.83
2019-04-20T05:42:19.143Z,18.53
2019-04-20T05:44:49.955Z,17.13
2019-04-20T05:47:16.999Z,19.23
2019-04-20T05:49:49.995Z,18.30
2019-04-20T05:52:43.843Z,17.73
2019-04-20T05:54:58.223Z,18.30
2019-04-20T05:57:30.250Z,18.00
2019-04-20T06:00:07.149Z,18.77
2019-04-20T06:02:33.278Z,17.93
2019-04-20T06:05:04.070Z,18.10
2019-04-20T06:07:35.884Z,18.70
2019-04-20T06:10:09.552Z,17.97
2019-04-20T06:12:36.306Z,19.07
2019-04-20T06:15:20.747Z,16.70
2019-04-20T06:18:01.306Z,16.57
2019-04-20T06:20:36.348Z,17.90
2019-04-20T06:23:28.618Z,17.73
2019-04-20T06:26:12.779Z,17.00
2019-04-20T06:28:26.777Z,17.93
2019-04-20T06:30:59.438Z,17.47
2019-04-20T06:36:57.350Z,16.43
2019-04-20T06:39:22.576Z,15.90
2019-04-20T06:49:32.058Z,22.87
2019-04-20T06:52:11.192Z,22.37
2019-04-20T06:54:38.437Z,23.63
2019-04-20T06:57:10.037Z,21.30
2019-04-20T06:59:59.792Z,18.67
2019-04-20T07:02:21.879Z,17.17
2019-04-20T07:05:08.762Z,15.53
2019-04-20T07:07:35.814Z,17.23
2019-04-20T07:09:59.870Z,15.73
2019-04-20T07:12:24.074Z,17.00
2019-04-20T07:14:47.454Z,16.03
2019-04-20T07:20:04.517Z,17.10
2019-04-20T07:23:09.508Z,15.97
2019-04-20T07:25:18.955Z,14.47
2019-04-20T07:27:55.242Z,15.23
2019-04-20T07:30:33.454Z,16.57
2019-04-20T07:33:04.273Z,16.10
2019-04-20T07:35:40.202Z,14.23
2019-04-20T07:38:31.014Z,13.23
2019-04-20T07:40:55.821Z,13.47
2019-04-20T07:43:30.000Z,14.57
2019-04-20T07:46:10.516Z,12.73
2019-04-20T07:48:42.194Z,13.47
2019-04-20T07:51:03.574Z,13.20
2019-04-20T07:53:58.648Z,13.10
2019-04-20T07:56:34.990Z,13.20
2019-04-20T07:58:50.006Z,14.03
2019-04-20T08:01:45.377Z,13.20
2019-04-20T08:04:17.187Z,12.70
2019-04-20T08:06:43.138Z,12.73
2019-04-20T08:09:22.756Z,12.13
2019-04-20T08:12:11.730Z,12.10
2019-04-20T08:14:55.381Z,12.07
2019-04-20T08:17:20.296Z,12.33
2019-04-20T08:19:46.990Z,11.47
2019-04-20T08:22:19.786Z,10.17
2019-04-20T08:24:52.775Z,10.37
2019-04-20T08:27:16.162Z,10.40
2019-04-20T08:29:59.019Z,9.90
2019-04-20T08:32:45.121Z,9.13
2019-04-20T08:35:28.287Z,8.63
2019-04-20T08:38:14.835Z,9.47
2019-04-20T08:40:36.071Z,9.43
2019-04-20T08:43:20.824Z,10.00
2019-04-20T08:45:46.589Z,9.50
2019-04-20T08:48:19.178Z,9.90
2019-04-20T08:50:47.045Z,9.57
2019-04-20T08:55:47.710Z,9.27
2019-04-20T08:58:02.174Z,9.70
2019-04-20T09:00:39.530Z,9.67
2019-04-20T09:03:12.979Z,8.70
2019-04-20T09:05:51.230Z,10.13
2019-04-20T09:08:17.623Z,9.93
2019-04-20T09:10:54.373Z,10.50
2019-04-20T09:13:21.050Z,9.73
2019-04-20T09:15:42.617Z,10.13
2019-04-20T09:18:22.521Z,9.80
2019-04-20T09:20:52.833Z,10.43
2019-04-20T09:23:38.103Z,9.57
2019-04-20T09:26:16.189Z,10.20
2019-04-20T09:28:39.592Z,9.83
2019-04-20T09:31:22.690Z,9.23
2019-04-20T09:33:55.658Z,9.83
2019-04-20T09:36:29.172Z,10.50
2019-04-20T09:39:11.525Z,8.87
2019-04-20T09:42:00.737Z,8.57
2019-04-20T09:44:30.533Z,9.67
2019-04-20T09:46:58.179Z,9.27
2019-04-20T09:49:38.721Z,9.67
2019-04-20T09:52:12.248Z,8.50
2019-04-20T09:54:45.992Z,7.97
2019-04-20T09:57:22.782Z,7.70
2019-04-20T09:59:53.719Z,8.97
2019-04-20T10:02:15.149Z,8.47
2019-04-20T10:04:37.608Z,7.40
2019-04-20T10:07:14.207Z,8.13
2019-04-20T10:09:44.533Z,8.20
2019-04-20T10:12:11.850Z,7.20
2019-04-20T10:14:42.707Z,6.87
2019-04-20T10:17:13.742Z,7.93
2019-04-20T10:19:45.311Z,7.40
2019-04-20T10:22:15.414Z,7.00
2019-04-20T10:24:48.374Z,6.17
2019-04-20T10:27:17.018Z,6.33
2019-04-20T10:29:46.981Z,7.20
2019-04-20T10:32:17.917Z,7.53
2019-04-20T10:34:48.508Z,7.53
2019-04-20T10:37:20.098Z,7.37
2019-04-20T10:39:50.074Z,6.53
2019-04-20T10:42:20.449Z,6.40
2019-04-20T10:44:53.976Z,6.93
2019-04-20T10:47:23.091Z,6.67
2019-04-20T10:49:55.340Z,6.53
2019-04-20T10:52:27.740Z,6.67
2019-04-20T10:54:58.649Z,6.40
2019-04-20T10:57:29.315Z,6.13
2019-04-20T10:59:59.640Z,6.63
2019-04-20T11:02:29.898Z,7.10
2019-04-20T11:04:59.882Z,6.50
2019-04-20T11:07:30.382Z,7.07
2019-04-20T11:10:10.622Z,6.67
2019-04-20T11:12:34.568Z,6.40
2019-04-20T11:15:06.168Z,6.50
2019-04-20T11:17:37.147Z,6.30
2019-04-20T11:20:07.578Z,6.60
2019-04-20T11:22:38.024Z,6.97
2019-04-20T11:25:08.332Z,6.53
2019-04-20T11:27:38.434Z,6.47
2019-04-20T11:30:10.103Z,5.90
2019-04-20T11:32:40.271Z,6.40
2019-04-20T11:35:20.003Z,6.30
2019-04-20T11:37:42.866Z,6.27
2019-04-20T11:40:14.929Z,5.77
2019-04-20T11:42:45.660Z,5.57
2019-04-20T11:45:16.018Z,5.27
2019-04-20T11:47:47.285Z,5.30
2019-04-20T11:50:17.897Z,6.10
2019-04-20T11:52:51.035Z,5.97
2019-04-20T11:55:20.155Z,6.63
2019-04-20T11:57:51.332Z,6.13
2019-04-20T12:00:42.295Z,6.63
2019-04-20T12:03:21.191Z,6.70
2019-04-20T12:05:46.623Z,6.27
2019-04-20T12:08:13.321Z,6.63
2019-04-20T12:10:48.380Z,7.47
2019-04-20T12:13:16.345Z,5.30
2019-04-20T12:15:47.693Z,5.63
2019-04-20T12:18:17.967Z,5.50
2019-04-20T12:20:47.886Z,6.00
2019-04-20T12:23:18.042Z,5.60
2019-04-20T12:25:50.207Z,6.20
2019-04-20T12:28:20.248Z,6.70
2019-04-20T12:30:51.550Z,7.40
2019-04-20T12:33:22.078Z,6.70
2019-04-20T12:35:52.257Z,6.87
2019-04-20T12:38:23.140Z,6.60
2019-04-20T12:40:53.204Z,6.10
2019-04-20T12:43:23.604Z,6.20
2019-04-20T12:45:53.803Z,6.60
2019-04-20T12:48:23.965Z,6.90
2019-04-20T12:50:55.419Z,7.05
2019-04-20T12:53:26.516Z,6.70
2019-04-20T12:55:56.822Z,6.47
2019-04-20T12:58:28.305Z,7.72
2019-04-20T13:00:58.440Z,6.72
2019-04-20T13:03:29.657Z,7.17
2019-04-20T13:05:59.730Z,5.95
2019-04-20T13:08:36.239Z,6.47
2019-04-20T13:11:04.594Z,6.03
2019-04-20T13:13:48.368Z,6.53
2019-04-20T13:16:22.917Z,6.20
2019-04-20T13:18:57.315Z,6.60
2019-04-20T13:21:27.221Z,6.55
2019-04-20T13:23:57.186Z,7.35
2019-04-20T13:26:28.841Z,6.72
2019-04-20T13:28:59.200Z,7.12
2019-04-20T13:31:29.663Z,6.25
2019-04-20T13:34:03.582Z,6.50
2019-04-20T13:36:37.937Z,7.03
2019-04-20T13:39:12.207Z,6.53
2019-04-20T13:42:02.125Z,6.65
2019-04-20T13:44:28.476Z,7.05
2019-04-20T13:46:58.818Z,7.20
2019-04-20T13:49:29.151Z,6.70
2019-04-20T13:51:59.239Z,5.90
2019-04-20T13:54:29.882Z,6.40
2019-04-20T13:57:01.860Z,6.12
2019-04-20T13:59:43.802Z,5.67
2019-04-20T14:02:22.718Z,5.95
2019-04-20T14:04:54.996Z,5.53
2019-04-20T14:07:26.957Z,5.97
2019-04-20T14:09:57.453Z,6.17
2019-04-20T14:12:32.403Z,5.92
2019-04-20T14:14:59.437Z,5.95
2019-04-20T14:17:30.751Z,7.05
2019-04-20T14:20:06.983Z,5.65
2019-04-20T14:22:33.337Z,6.37
2019-04-20T14:25:04.926Z,5.72
2019-04-20T14:27:35.067Z,5.17
2019-04-20T14:30:06.773Z,5.65
2019-04-20T14:32:36.904Z,6.12
2019-04-20T14:35:09.193Z,5.87
2019-04-20T14:37:39.649Z,5.60
2019-04-20T14:40:10.408Z,5.47
2019-04-20T14:42:46.430Z,6.35
2019-04-20T14:45:12.518Z,5.00
2019-04-20T14:47:43.710Z,5.47
2019-04-20T14:50:14.246Z,5.62
2019-04-20T14:52:44.262Z,5.62
2019-04-20T14:55:17.238Z,5.58
2019-04-20T14:57:47.651Z,5.37
2019-04-20T15:00:35.376Z,5.72
2019-04-20T15:03:23.980Z,5.08
2019-04-20T15:05:57.713Z,5.35
2019-04-20T15:08:27.695Z,5.58
2019-04-20T15:10:58.804Z,5.17
2019-04-20T15:13:28.953Z,5.20
2019-04-20T15:15:59.022Z,5.33
2019-04-20T15:18:33.673Z,5.10
2019-04-20T15:21:05.800Z,6.03
2019-04-20T15:23:35.820Z,4.92
2019-04-20T15:26:06.845Z,5.35
2019-04-20T15:28:36.838Z,5.80
2019-04-20T15:31:07.915Z,6.47
2019-04-20T15:33:39.088Z,5.97
2019-04-20T15:36:10.451Z,5.78
2019-04-20T15:38:40.933Z,5.90
2019-04-20T15:41:13.220Z,6.62
2019-04-20T15:43:43.563Z,5.97
2019-04-20T15:46:15.166Z,6.15
2019-04-20T15:48:46.153Z,5.87
2019-04-20T15:51:17.330Z,6.30
2019-04-20T15:53:47.674Z,6.22
2019-04-20T15:56:18.639Z,6.20
2019-04-20T15:58:48.687Z,6.22
2019-04-20T16:01:22.669Z,5.67
2019-04-20T16:04:01.530Z,6.20
2019-04-20T16:06:32.816Z,5.53
2019-04-20T16:09:06.034Z,6.00
2019-04-20T16:11:37.012Z,7.20
2019-04-20T16:14:08.954Z,6.08
2019-04-20T16:16:40.388Z,11.43
2019-04-20T16:19:25.902Z,6.20
2019-04-20T16:21:43.790Z,6.50
2019-04-20T16:24:15.045Z,6.35
2019-04-20T16:26:47.416Z,7.05
2019-04-20T16:29:17.753Z,6.85
2019-04-20T16:31:50.133Z,12.40
2019-04-20T16:34:21.268Z,7.85
2019-04-20T16:36:54.402Z,7.17
2019-04-20T16:39:23.079Z,14.03
2019-04-20T16:41:53.948Z,14.23
2019-04-20T16:44:25.516Z,8.08
2019-04-20T16:46:56.300Z,6.75
2019-04-20T16:49:26.806Z,7.63
2019-04-20T16:51:57.119Z,14.68
2019-04-20T16:54:27.997Z,17.03
2019-04-20T16:56:58.018Z,16.50
2019-04-20T16:59:28.255Z,11.73
2019-04-20T17:01:58.352Z,9.07
2019-04-20T17:04:30.252Z,7.30
2019-04-20T17:07:16.801Z,6.40
2019-04-20T17:09:49.682Z,6.67
2019-04-20T17:12:19.902Z,18.43
2019-04-20T17:14:49.859Z,44.67
2019-04-20T17:17:19.834Z,32.60
2019-04-20T17:19:49.786Z,21.47
2019-04-20T17:22:19.762Z,14.60
2019-04-20T17:24:49.727Z,11.27
2019-04-20T17:27:37.489Z,8.53
2019-04-20T17:30:10.531Z,9.83
2019-04-20T17:32:41.257Z,8.97
2019-04-20T17:35:20.866Z,10.20
2019-04-20T17:37:45.273Z,8.13
2019-04-20T17:40:37.599Z,7.60
2019-04-20T17:42:56.847Z,7.83
2019-04-20T17:45:28.258Z,7.70
2019-04-20T17:48:05.719Z,7.00
2019-04-20T17:50:41.515Z,7.40
2019-04-20T17:53:12.631Z,6.43
2019-04-20T17:55:45.389Z,7.77
2019-04-20T17:58:20.923Z,6.73
2019-04-20T18:01:06.146Z,7.37
2019-04-20T18:04:11.450Z,7.40
2019-04-20T18:06:30.784Z,7.97
2019-04-20T18:08:56.179Z,8.60
2019-04-20T18:11:19.315Z,8.80
2019-04-20T18:13:46.200Z,8.10
2019-04-20T18:16:43.861Z,8.73
2019-04-20T18:19:15.219Z,8.63
2019-04-20T18:21:41.682Z,7.80
2019-04-20T18:24:24.208Z,8.17
2019-04-20T18:27:04.977Z,8.83
2019-04-20T18:29:37.955Z,8.17
2019-04-20T18:31:57.995Z,10.27
2019-04-20T18:34:53.201Z,10.53
2019-04-20T18:37:21.359Z,10.57
2019-04-20T18:39:57.263Z,8.37
2019-04-20T18:42:29.091Z,7.60
2019-04-20T18:45:14.393Z,7.73
2019-04-20T18:47:48.073Z,7.57
2019-04-20T18:50:09.501Z,7.83
2019-04-20T18:52:29.514Z,7.97
2019-04-20T18:54:59.566Z,8.60
2019-04-20T18:57:31.536Z,10.20
2019-04-20T19:00:02.820Z,9.43
2019-04-20T19:02:40.013Z,8.83
2019-04-20T19:05:08.684Z,9.97
2019-04-20T19:07:45.396Z,13.83
2019-04-20T19:10:18.580Z,14.40
2019-04-20T19:12:50.389Z,15.40
2019-04-20T19:15:37.453Z,10.93
2019-04-20T19:18:06.296Z,10.10
2019-04-20T19:20:28.841Z,10.47
2019-04-20T19:22:58.365Z,10.77
2019-04-20T19:25:33.190Z,10.50
2019-04-20T19:28:01.436Z,11.83
2019-04-20T19:30:41.035Z,11.70
2019-04-20T19:33:20.547Z,11.83
2019-04-20T19:35:48.691Z,11.37
2019-04-20T19:38:15.596Z,10.93
2019-04-20T19:40:47.923Z,10.13
2019-04-20T19:43:22.047Z,10.57
2019-04-20T19:46:25.669Z,9.57
2019-04-20T19:48:29.246Z,11.97
2019-04-20T19:51:22.343Z,16.67
2019-04-20T19:53:39.472Z,14.70
2019-04-20T19:56:04.040Z,14.53
2019-04-20T19:58:30.360Z,13.73
2019-04-20T20:00:55.770Z,13.87
2019-04-20T20:03:25.917Z,13.70
2019-04-20T20:05:58.274Z,14.27
2019-04-20T20:08:31.585Z,12.63
2019-04-20T20:11:01.882Z,13.07
2019-04-20T20:13:39.964Z,12.10
2019-04-20T20:16:10.547Z,10.83
2019-04-20T20:18:49.067Z,11.93
2019-04-20T20:21:20.137Z,11.93
2019-04-20T20:23:39.211Z,11.97
2019-04-20T20:26:22.393Z,11.57
2019-04-20T20:28:47.654Z,12.83
2019-04-20T20:31:23.490Z,12.83
2019-04-20T20:33:58.074Z,13.40
2019-04-20T20:36:21.326Z,13.47
2019-04-20T20:38:52.013Z,13.37
2019-04-20T20:41:26.334Z,12.77
2019-04-20T20:43:59.767Z,13.17
2019-04-20T20:46:32.763Z,12.97
2019-04-20T20:49:09.411Z,13.23
2019-04-20T20:52:02.410Z,14.27
2019-04-20T20:54:04.559Z,14.37
2019-04-20T20:56:35.183Z,13.07
2019-04-20T20:59:09.510Z,13.90
2019-04-20T21:01:42.588Z,14.00
2019-04-20T21:04:04.968Z,13.87
2019-04-20T21:06:35.162Z,13.67
2019-04-20T21:09:08.069Z,15.40
2019-04-20T21:11:40.208Z,17.13
2019-04-20T21:14:13.519Z,22.33
2019-04-20T21:16:54.666Z,21.73
2019-04-20T21:19:29.577Z,23.50
2019-04-20T21:21:54.705Z,24.20
2019-04-20T21:24:28.753Z,25.10
2019-04-20T21:27:00.678Z,24.17
2019-04-20T21:29:36.778Z,20.07
2019-04-20T21:32:08.837Z,17.20
2019-04-20T21:34:35.490Z,13.47
2019-04-20T21:37:10.654Z,12.67
2019-04-20T21:39:44.186Z,11.27
2019-04-20T21:42:14.429Z,11.73
2019-04-20T21:44:44.441Z,10.77
2019-04-20T21:47:15.664Z,12.67
2019-04-20T21:49:56.884Z,13.10
2019-04-20T21:52:23.500Z,12.03
2019-04-20T21:54:47.868Z,12.43
2019-04-20T21:57:18.125Z,12.77
2019-04-20T21:59:52.562Z,13.27
2019-04-20T22:02:25.389Z,12.53
2019-04-20T22:04:53.513Z,12.03
2019-04-20T22:07:23.621Z,13.10
2019-04-20T22:09:55.385Z,12.27
2019-04-20T22:12:28.472Z,12.20
2019-04-20T22:15:03.618Z,12.70
2019-04-20T22:17:33.092Z,12.93
2019-04-20T22:20:12.077Z,12.87
2019-04-20T22:22:46.901Z,14.00
2019-04-20T22:25:23.440Z,12.77
2019-04-20T22:27:38.540Z,12.87
2019-04-20T22:30:10.274Z,11.57
2019-04-20T22:32:43.272Z,11.97
2019-04-20T22:35:15.532Z,16.00
2019-04-20T22:37:53.149Z,15.47
2019-04-20T22:40:27.950Z,14.53
2019-04-20T22:42:57.784Z,15.90
2019-04-20T22:45:25.766Z,13.67
2019-04-20T22:48:01.143Z,15.33
2019-04-20T22:50:45.347Z,14.67
2019-04-20T22:53:17.883Z,15.30
2019-04-20T22:55:55.178Z,14.47
2019-04-20T22:58:19.458Z,15.43
2019-04-20T23:00:43.439Z,15.67
2019-04-20T23:03:05.233Z,15.93
2019-04-20T23:05:36.552Z,14.17
2019-04-20T23:08:06.751Z,14.60
2019-04-20T23:10:39.965Z,14.40
2019-04-20T23:13:09.997Z,13.70
2019-04-20T23:15:43.320Z,14.03
2019-04-20T23:18:11.961Z,13.60
2019-04-20T23:20:42.792Z,13.30
2019-04-20T23:23:18.129Z,13.73
2019-04-20T23:25:45.192Z,13.67
2019-04-20T23:28:18.047Z,13.80
2019-04-20T23:30:47.504Z,13.57
2019-04-20T23:33:18.265Z,14.83
2019-04-20T23:35:52.714Z,14.33
2019-04-20T23:38:23.183Z,14.50
2019-04-20T23:40:52.090Z,15.00
2019-04-20T23:43:28.150Z,14.53
2019-04-20T23:46:03.327Z,15.23
2019-04-20T23:48:39.266Z,13.93
2019-04-20T23:51:29.216Z,13.60
2019-04-20T23:53:52.180Z,13.53
2019-04-20T23:56:15.633Z,13.83
2019-04-20T23:58:46.395Z,13.80
